createdAt,value
2022-10-13T00:01:49.207Z,14.70
2022-10-13T00:04:22.073Z,24.50
2022-10-13T00:06:54.872Z,16.90
2022-10-13T00:09:32.051Z,19.60
2022-10-13T00:12:05.135Z,18.00
2022-10-13T00:14:38.059Z,22.30
2022-10-13T00:17:10.832Z,21.30
2022-10-13T00:19:43.688Z,19.10
2022-10-13T00:22:17.955Z,19.00
2022-10-13T00:24:55.805Z,27.50
2022-10-13T00:27:28.751Z,23.10
2022-10-13T00:30:01.675Z,18.70
2022-10-13T00:32:35.145Z,16.20
2022-10-13T00:35:11.032Z,17.60
2022-10-13T00:37:43.807Z,14.90
2022-10-13T00:40:17.550Z,18.40
2022-10-13T00:42:50.417Z,17.80
2022-10-13T00:45:28.314Z,20.70
2022-10-13T00:48:04.065Z,23.10
2022-10-13T00:50:42.177Z,16.10
2022-10-13T00:53:17.660Z,20.50
2022-10-13T00:55:51.890Z,16.20
2022-10-13T00:58:31.356Z,31.80
2022-10-13T01:01:05.720Z,16.10
2022-10-13T01:03:40.017Z,21.20
2022-10-13T01:06:14.442Z,21.60
2022-10-13T01:08:47.411Z,21.60
2022-10-13T01:11:41.283Z,18.30
2022-10-13T01:14:25.271Z,19.70
2022-10-13T01:17:07.253Z,26.20
2022-10-13T01:20:29.263Z,22.50
2022-10-13T01:23:22.371Z,24.20
2022-10-13T01:26:18.579Z,17.70
2022-10-13T01:29:19.338Z,22.40
2022-10-13T01:32:00.718Z,24.30
2022-10-13T01:34:42.674Z,22.30
2022-10-13T01:37:23.764Z,26.50
2022-10-13T01:40:04.358Z,25.70
2022-10-13T01:45:23.650Z,22.80
2022-10-13T01:47:57.302Z,28.00
2022-10-13T01:50:31.112Z,23.50
2022-10-13T01:53:06.310Z,31.20
2022-10-13T01:55:49.422Z,25.90
2022-10-13T01:58:22.356Z,25.00
2022-10-13T02:01:11.418Z,22.70
2022-10-13T02:03:59.055Z,29.70
2022-10-13T02:06:40.314Z,30.20
2022-10-13T02:09:21.754Z,18.80
2022-10-13T02:12:00.870Z,29.40
2022-10-13T02:14:39.298Z,32.30
2022-10-13T02:17:12.471Z,26.20
2022-10-13T02:19:48.463Z,24.20
2022-10-13T02:22:24.398Z,23.90
2022-10-13T02:24:58.365Z,25.00
2022-10-13T02:27:31.407Z,30.30
2022-10-13T02:30:04.849Z,23.80
2022-10-13T02:32:37.838Z,29.80
2022-10-13T02:35:11.792Z,36.10
2022-10-13T02:37:44.669Z,29.80
2022-10-13T02:40:18.521Z,30.30
2022-10-13T02:42:51.330Z,29.60
2022-10-13T02:45:24.465Z,33.40
2022-10-13T02:48:00.801Z,43.80
2022-10-13T02:50:33.661Z,28.50
2022-10-13T02:53:06.608Z,37.10
2022-10-13T02:55:39.405Z,26.60
2022-10-13T02:58:12.233Z,39.80
2022-10-13T03:00:45.090Z,32.00
2022-10-13T03:03:17.899Z,35.00
2022-10-13T03:05:51.191Z,31.60
2022-10-13T03:08:24.813Z,34.70
2022-10-13T03:10:58.085Z,31.10
2022-10-13T03:13:31.129Z,32.40
2022-10-13T03:16:11.722Z,29.90
2022-10-13T03:18:44.583Z,25.90
2022-10-13T03:21:17.403Z,29.90
2022-10-13T03:23:50.200Z,23.10
2022-10-13T03:26:23.258Z,36.40
2022-10-13T03:28:56.327Z,26.90
2022-10-13T03:31:29.409Z,27.70
2022-10-13T03:34:07.751Z,32.30
2022-10-13T03:36:40.655Z,29.30
2022-10-13T03:39:13.477Z,26.50
2022-10-13T03:41:46.345Z,26.70
2022-10-13T03:44:19.084Z,27.30
2022-10-13T03:46:51.848Z,25.60
2022-10-13T03:49:24.636Z,25.10
2022-10-13T03:51:57.489Z,29.80
2022-10-13T03:54:30.634Z,27.90
2022-10-13T03:57:03.409Z,27.10
2022-10-13T03:59:37.131Z,27.60
2022-10-13T04:02:10.411Z,31.00
2022-10-13T04:04:43.447Z,25.00
2022-10-13T04:07:16.182Z,25.30
2022-10-13T04:09:48.967Z,32.50
2022-10-13T04:12:21.728Z,30.40
2022-10-13T04:14:54.505Z,37.80
2022-10-13T04:17:27.345Z,27.40
2022-10-13T04:20:00.142Z,30.00
2022-10-13T04:22:33.216Z,32.10
2022-10-13T04:25:07.096Z,28.80
2022-10-13T04:27:40.052Z,32.70
2022-10-13T04:30:15.164Z,26.90
2022-10-13T04:32:47.906Z,39.00
2022-10-13T04:35:21.513Z,40.30
2022-10-13T04:37:54.426Z,37.10
2022-10-13T04:40:28.315Z,38.40
2022-10-13T04:43:01.230Z,28.50
2022-10-13T04:45:34.011Z,32.10
2022-10-13T04:48:07.001Z,30.30
2022-10-13T04:50:40.056Z,31.30
2022-10-13T04:53:16.790Z,35.00
2022-10-13T04:55:51.851Z,32.20
2022-10-13T04:58:24.761Z,32.60
2022-10-13T05:00:58.877Z,29.40
2022-10-13T05:03:32.918Z,31.20
2022-10-13T05:06:06.003Z,35.00
2022-10-13T05:08:39.850Z,31.60
2022-10-13T05:11:12.604Z,31.40
2022-10-13T05:13:46.904Z,36.80
2022-10-13T05:16:22.340Z,29.60
2022-10-13T05:18:56.858Z,34.70
2022-10-13T05:21:31.281Z,48.00
2022-10-13T05:24:06.228Z,38.50
2022-10-13T05:26:40.839Z,36.90
2022-10-13T05:29:13.604Z,43.80
2022-10-13T05:31:46.355Z,43.30
2022-10-13T05:34:19.160Z,37.20
2022-10-13T05:36:51.998Z,33.60
2022-10-13T05:39:24.837Z,38.30
2022-10-13T05:41:57.845Z,37.60
2022-10-13T05:44:30.621Z,38.00
2022-10-13T05:47:07.318Z,31.50
2022-10-13T05:49:41.190Z,38.40
2022-10-13T05:52:15.407Z,36.40
2022-10-13T05:54:52.410Z,41.80
2022-10-13T05:57:28.502Z,35.10
2022-10-13T06:00:04.140Z,38.10
2022-10-13T06:02:50.114Z,35.90
2022-10-13T06:05:26.042Z,37.10
2022-10-13T06:08:01.374Z,33.60
2022-10-13T06:10:34.154Z,44.60
2022-10-13T06:13:07.045Z,42.60
2022-10-13T06:15:39.821Z,44.70
2022-10-13T06:18:13.740Z,40.20
2022-10-13T06:20:47.586Z,31.50
2022-10-13T06:23:21.317Z,46.00
2022-10-13T06:25:54.938Z,33.70
2022-10-13T06:28:28.112Z,36.60
2022-10-13T06:31:00.948Z,37.50
2022-10-13T06:33:34.006Z,31.60
2022-10-13T06:36:08.884Z,45.10
2022-10-13T06:38:41.669Z,32.00
2022-10-13T06:41:14.546Z,31.60
2022-10-13T06:43:47.579Z,37.80
2022-10-13T06:46:22.488Z,43.90
2022-10-13T06:48:55.548Z,30.60
2022-10-13T06:51:29.141Z,39.50
2022-10-13T06:54:01.839Z,35.50
2022-10-13T06:56:36.860Z,37.50
2022-10-13T06:59:14.415Z,37.00
2022-10-13T07:01:51.910Z,29.80
2022-10-13T07:04:28.352Z,36.40
2022-10-13T07:07:03.941Z,34.00
2022-10-13T07:09:37.019Z,43.20
2022-10-13T07:12:11.328Z,35.10
2022-10-13T07:14:44.126Z,45.00
2022-10-13T07:17:17.094Z,36.80
2022-10-13T07:19:50.352Z,42.70
2022-10-13T07:22:23.231Z,48.50
2022-10-13T07:24:56.012Z,41.80
2022-10-13T07:27:30.169Z,43.40
2022-10-13T07:30:03.328Z,42.50
2022-10-13T07:32:36.792Z,42.60
2022-10-13T07:35:13.634Z,44.50
2022-10-13T07:37:46.450Z,46.90
2022-10-13T07:40:19.705Z,43.60
2022-10-13T07:42:52.651Z,40.70
2022-10-13T07:45:25.595Z,35.40
2022-10-13T07:47:58.746Z,44.00
2022-10-13T07:50:31.782Z,37.70
2022-10-13T07:53:05.565Z,44.70
2022-10-13T07:55:39.292Z,34.30
2022-10-13T07:58:12.244Z,38.60
2022-10-13T08:00:45.080Z,39.10
2022-10-13T08:03:17.989Z,38.60
2022-10-13T08:05:50.801Z,44.50
2022-10-13T08:08:23.725Z,42.60
2022-10-13T08:10:57.147Z,42.70
2022-10-13T08:13:31.270Z,33.90
2022-10-13T08:16:11.333Z,36.80
2022-10-13T08:18:44.248Z,35.90
2022-10-13T08:24:18.418Z,28.80
2022-10-13T08:26:51.826Z,29.10
2022-10-13T08:29:24.877Z,26.50
2022-10-13T08:31:58.522Z,32.60
2022-10-13T08:34:31.558Z,29.10
2022-10-13T08:37:04.650Z,29.60
2022-10-13T08:39:37.477Z,22.40
2022-10-13T08:42:21.162Z,30.70
2022-10-13T08:45:22.117Z,29.70
2022-10-13T08:47:58.162Z,26.50
2022-10-13T08:50:36.001Z,23.60
2022-10-13T08:53:15.871Z,27.90
2022-10-13T08:55:57.194Z,27.90
2022-10-13T08:58:33.271Z,25.40
2022-10-13T09:01:16.742Z,31.60
2022-10-13T09:03:58.315Z,25.90
2022-10-13T09:06:34.441Z,21.00
2022-10-13T09:09:11.064Z,26.80
2022-10-13T09:11:46.759Z,25.40
2022-10-13T09:14:28.434Z,28.50
2022-10-13T09:17:19.774Z,28.10
2022-10-13T09:20:04.699Z,25.10
2022-10-13T09:22:39.722Z,18.50
2022-10-13T09:25:23.836Z,18.50
2022-10-13T09:28:00.244Z,20.40
2022-10-13T09:30:38.355Z,23.40
2022-10-13T09:33:25.278Z,17.10
2022-10-13T09:36:14.819Z,20.70
2022-10-13T09:39:07.968Z,17.60
2022-10-13T09:41:43.575Z,18.30
2022-10-13T09:44:23.144Z,15.00
2022-10-13T09:47:00.785Z,14.80
2022-10-13T09:49:44.276Z,14.10
2022-10-13T09:52:25.261Z,19.60
2022-10-13T09:55:00.959Z,22.30
2022-10-13T09:57:44.844Z,27.70
2022-10-13T10:00:22.796Z,20.90
2022-10-13T10:03:00.087Z,18.80
2022-10-13T10:05:41.028Z,20.70
2022-10-13T10:08:22.577Z,19.60
2022-10-13T10:11:05.196Z,19.70
2022-10-13T10:13:38.058Z,19.50
2022-10-13T10:16:19.839Z,26.90
2022-10-13T10:18:59.040Z,13.80
2022-10-13T10:21:39.357Z,16.20
2022-10-13T10:24:26.296Z,24.00
2022-10-13T10:27:06.703Z,16.20
2022-10-13T10:29:50.547Z,15.30
2022-10-13T10:32:42.043Z,18.30
2022-10-13T10:35:23.176Z,26.50
2022-10-13T10:38:11.833Z,17.30
2022-10-13T10:41:03.947Z,13.60
2022-10-13T10:43:54.363Z,17.90
2022-10-13T10:46:31.891Z,21.00
2022-10-13T10:49:14.095Z,20.80
2022-10-13T10:51:48.947Z,26.90
2022-10-13T10:54:35.800Z,17.70
2022-10-13T10:57:18.489Z,19.60
2022-10-13T11:00:05.439Z,14.60
2022-10-13T11:02:53.895Z,13.10
2022-10-13T11:05:26.962Z,11.90
2022-10-13T11:08:03.364Z,13.30
2022-10-13T11:10:36.442Z,12.30
2022-10-13T11:13:26.107Z,14.40
2022-10-13T11:15:59.112Z,10.50
2022-10-13T11:19:28.465Z,12.40
2022-10-13T11:22:22.455Z,12.10
2022-10-13T11:25:02.365Z,16.80
2022-10-13T11:27:46.319Z,13.50
2022-10-13T11:30:50.384Z,14.00
2022-10-13T11:33:58.865Z,11.90
2022-10-13T11:36:56.099Z,11.90
2022-10-13T11:40:16.641Z,14.00
2022-10-13T11:43:28.336Z,21.90
2022-10-13T11:46:35.879Z,16.90
2022-10-13T11:49:47.767Z,21.00
2022-10-13T11:52:44.038Z,27.50
2022-10-13T11:55:19.613Z,14.70
2022-10-13T11:58:08.636Z,10.40
2022-10-13T12:00:53.054Z,12.40
2022-10-13T12:03:30.398Z,10.90
2022-10-13T12:06:06.034Z,11.30
2022-10-13T12:08:41.030Z,9.00
2022-10-13T12:11:27.666Z,17.00
2022-10-13T12:14:01.537Z,9.80
2022-10-13T12:16:34.472Z,7.60
2022-10-13T12:19:24.390Z,9.30
2022-10-13T12:21:59.366Z,9.80
2022-10-13T12:24:33.754Z,10.10
2022-10-13T12:27:21.878Z,11.90
2022-10-13T12:29:54.922Z,11.00
2022-10-13T12:32:33.721Z,13.20
2022-10-13T12:35:21.485Z,14.10
2022-10-13T12:37:55.213Z,13.50
2022-10-13T12:40:28.527Z,7.80
2022-10-13T12:43:01.697Z,9.80
2022-10-13T12:45:36.697Z,8.60
2022-10-13T12:48:33.791Z,7.10
2022-10-13T12:51:20.225Z,10.60
2022-10-13T12:53:53.121Z,13.40
2022-10-13T12:56:34.644Z,7.80
2022-10-13T12:59:16.104Z,9.00
2022-10-13T13:01:56.763Z,12.00
2022-10-13T13:04:44.420Z,12.90
2022-10-13T13:07:53.433Z,14.50
2022-10-13T13:10:26.714Z,10.20
2022-10-13T13:13:16.035Z,13.00
2022-10-13T13:15:48.823Z,8.80
2022-10-13T13:18:42.358Z,8.30
2022-10-13T13:21:17.802Z,10.10
2022-10-13T13:23:53.986Z,10.70
2022-10-13T13:26:28.295Z,9.90
2022-10-13T13:29:02.044Z,13.90
2022-10-13T13:31:34.896Z,14.90
2022-10-13T13:34:07.745Z,12.00
2022-10-13T13:36:40.572Z,12.30
2022-10-13T13:39:18.471Z,15.50
2022-10-13T13:41:51.269Z,16.90
2022-10-13T13:44:24.514Z,10.10
2022-10-13T13:46:57.577Z,11.00
2022-10-13T13:49:30.408Z,11.80
2022-10-13T13:52:03.204Z,14.40
2022-10-13T13:54:36.006Z,14.90
2022-10-13T13:57:08.911Z,11.50
2022-10-13T13:59:42.395Z,12.00
2022-10-13T14:02:19.625Z,9.60
2022-10-13T14:04:53.476Z,12.80
2022-10-13T14:07:26.818Z,12.70
2022-10-13T14:10:02.341Z,11.90
2022-10-13T14:12:36.407Z,9.70
2022-10-13T14:15:11.683Z,13.80
2022-10-13T14:17:44.516Z,15.40
2022-10-13T14:20:17.640Z,15.70
2022-10-13T14:22:50.700Z,9.30
2022-10-13T14:25:24.017Z,17.50
2022-10-13T14:27:56.819Z,14.40
2022-10-13T14:30:29.549Z,17.60
2022-10-13T14:33:05.088Z,10.20
2022-10-13T14:35:37.958Z,12.00
2022-10-13T14:38:12.139Z,8.80
2022-10-13T14:40:46.886Z,48.90
2022-10-13T14:43:19.674Z,12.60
2022-10-13T14:45:52.427Z,15.20
2022-10-13T14:48:25.523Z,13.60
2022-10-13T14:50:58.307Z,10.30
2022-10-13T14:53:33.111Z,11.00
2022-10-13T14:56:15.004Z,13.90
2022-10-13T14:58:48.658Z,16.20
2022-10-13T15:01:21.975Z,11.10
2022-10-13T15:03:54.939Z,12.80
2022-10-13T15:06:30.015Z,11.00
2022-10-13T15:09:03.045Z,14.30
2022-10-13T15:11:36.410Z,13.30
2022-10-13T15:14:10.226Z,12.20
2022-10-13T15:16:43.072Z,9.80
2022-10-13T15:19:15.815Z,9.60
2022-10-13T15:21:48.618Z,12.70
2022-10-13T15:24:21.499Z,11.20
2022-10-13T15:26:58.114Z,14.40
2022-10-13T15:29:35.039Z,13.50
2022-10-13T15:32:18.258Z,9.20
2022-10-13T15:34:55.968Z,14.00
2022-10-13T15:37:28.960Z,12.50
2022-10-13T15:40:01.771Z,16.80
2022-10-13T15:42:34.549Z,23.00
2022-10-13T15:45:10.298Z,12.40
2022-10-13T15:47:44.152Z,13.10
2022-10-13T15:50:16.977Z,18.90
2022-10-13T15:52:50.217Z,12.30
2022-10-13T15:55:23.208Z,27.60
2022-10-13T15:57:56.026Z,19.50
2022-10-13T16:00:29.250Z,24.80
2022-10-13T16:03:04.501Z,17.10
2022-10-13T16:05:41.176Z,19.40
2022-10-13T16:08:14.526Z,22.50
2022-10-13T16:10:47.485Z,20.00
2022-10-13T16:13:20.265Z,20.70
2022-10-13T16:16:03.123Z,24.80
2022-10-13T16:18:38.002Z,18.10
2022-10-13T16:21:18.780Z,17.70
2022-10-13T16:23:52.198Z,15.70
2022-10-13T16:26:25.216Z,16.70
2022-10-13T16:29:00.199Z,19.30
2022-10-13T16:31:33.898Z,14.90
2022-10-13T16:34:07.105Z,14.70
2022-10-13T16:36:40.122Z,15.10
2022-10-13T16:39:12.891Z,20.30
2022-10-13T16:41:46.960Z,15.30
2022-10-13T16:44:21.794Z,16.90
2022-10-13T16:46:57.022Z,14.80
2022-10-13T16:49:29.985Z,23.80
2022-10-13T16:52:02.870Z,18.40
2022-10-13T16:54:35.969Z,20.90
2022-10-13T16:57:08.969Z,24.10
2022-10-13T16:59:42.662Z,16.50
2022-10-13T17:02:18.199Z,18.90
2022-10-13T17:04:50.958Z,19.50
2022-10-13T17:07:24.037Z,18.30
2022-10-13T17:09:56.967Z,23.00
2022-10-13T17:12:29.927Z,16.50
2022-10-13T17:15:02.813Z,16.40
2022-10-13T17:17:36.245Z,21.20
2022-10-13T17:20:12.210Z,19.30
2022-10-13T17:22:46.485Z,17.70
2022-10-13T17:25:20.496Z,18.30
2022-10-13T17:27:53.350Z,25.70
2022-10-13T17:30:26.537Z,19.50
2022-10-13T17:33:04.041Z,24.30
2022-10-13T17:35:37.384Z,19.70
2022-10-13T17:38:10.696Z,27.00
2022-10-13T17:40:43.664Z,23.00
2022-10-13T17:43:16.464Z,24.40
2022-10-13T17:45:49.419Z,27.20
2022-10-13T17:48:23.365Z,30.40
2022-10-13T17:50:56.240Z,32.10
2022-10-13T17:53:29.212Z,27.80
2022-10-13T17:56:06.588Z,27.70
2022-10-13T17:58:42.446Z,21.40
2022-10-13T18:01:20.012Z,27.40
2022-10-13T18:03:56.400Z,32.40
2022-10-13T18:06:38.620Z,30.60
2022-10-13T18:09:14.909Z,30.10
2022-10-13T18:11:51.409Z,31.20
2022-10-13T18:14:25.724Z,34.20
2022-10-13T18:16:58.484Z,33.50
2022-10-13T18:19:31.233Z,43.10
2022-10-13T18:22:04.051Z,42.50
2022-10-13T18:24:37.198Z,54.00
2022-10-13T18:27:10.092Z,57.10
2022-10-13T18:29:44.532Z,53.00
2022-10-13T18:32:17.474Z,52.10
2022-10-13T18:34:50.436Z,48.40
2022-10-13T18:37:23.496Z,42.00
2022-10-13T18:39:56.422Z,45.20
2022-10-13T18:42:29.259Z,47.40
2022-10-13T18:45:02.103Z,48.20
2022-10-13T18:47:35.215Z,39.70
2022-10-13T18:50:09.242Z,42.70
2022-10-13T18:52:42.163Z,42.70
2022-10-13T18:55:15.462Z,36.00
2022-10-13T18:57:48.507Z,36.10
2022-10-13T19:00:21.956Z,39.40
2022-10-13T19:02:54.961Z,48.70
2022-10-13T19:05:27.905Z,39.20
2022-10-13T19:08:03.058Z,44.70
2022-10-13T19:10:35.933Z,42.30
2022-10-13T19:13:08.830Z,43.40
2022-10-13T19:15:41.658Z,47.10
2022-10-13T19:18:15.001Z,44.00
2022-10-13T19:20:48.643Z,47.80
2022-10-13T19:23:22.164Z,43.80
2022-10-13T19:25:55.280Z,52.50
2022-10-13T19:28:28.560Z,39.60
2022-10-13T19:31:10.574Z,39.20
2022-10-13T19:33:45.037Z,47.70
2022-10-13T19:36:26.940Z,40.50
2022-10-13T19:39:01.954Z,48.00
2022-10-13T19:41:36.594Z,47.40
2022-10-13T19:44:10.151Z,44.50
2022-10-13T19:46:47.964Z,38.00
2022-10-13T19:49:23.252Z,41.60
2022-10-13T19:51:56.475Z,44.30
2022-10-13T19:54:33.857Z,46.50
2022-10-13T19:57:07.063Z,45.70
2022-10-13T19:59:44.049Z,44.00
2022-10-13T20:02:20.061Z,42.10
2022-10-13T20:04:53.382Z,50.70
2022-10-13T20:07:26.189Z,37.60
2022-10-13T20:09:59.060Z,43.10
2022-10-13T20:12:33.000Z,46.60
2022-10-13T20:15:06.255Z,48.40
2022-10-13T20:17:39.073Z,38.90
2022-10-13T20:20:13.143Z,54.50
2022-10-13T20:22:46.010Z,44.70
2022-10-13T20:25:20.088Z,46.30
2022-10-13T20:27:53.376Z,47.10
2022-10-13T20:30:26.321Z,43.60
2022-10-13T20:33:00.031Z,44.10
2022-10-13T20:35:33.299Z,42.00
2022-10-13T20:38:06.246Z,39.30
2022-10-13T20:40:39.023Z,33.50
2022-10-13T20:43:12.301Z,42.40
2022-10-13T20:45:45.207Z,41.10
2022-10-13T20:48:18.082Z,37.60
2022-10-13T20:50:51.101Z,36.30
2022-10-13T20:53:24.109Z,39.90
2022-10-13T20:56:01.872Z,36.90
2022-10-13T20:58:37.886Z,41.80
2022-10-13T21:01:11.784Z,43.80
2022-10-13T21:03:44.636Z,42.10
2022-10-13T21:06:17.897Z,30.70
2022-10-13T21:08:51.347Z,34.50
2022-10-13T21:11:25.567Z,43.10
2022-10-13T21:13:58.866Z,38.20
2022-10-13T21:16:32.540Z,42.70
2022-10-13T21:19:06.518Z,43.10
2022-10-13T21:21:39.671Z,35.70
2022-10-13T21:24:14.353Z,41.80
2022-10-13T21:26:47.306Z,35.10
2022-10-13T21:29:20.298Z,40.60
2022-10-13T21:31:53.246Z,37.30
2022-10-13T21:34:26.123Z,35.00
2022-10-13T21:36:59.002Z,43.40
2022-10-13T21:39:31.830Z,39.80
2022-10-13T21:42:04.720Z,41.80
2022-10-13T21:44:37.626Z,44.30
2022-10-13T21:47:12.767Z,36.90
2022-10-13T21:49:45.578Z,48.20
2022-10-13T21:52:18.733Z,39.60
2022-10-13T21:54:54.022Z,38.30
2022-10-13T21:57:27.007Z,40.20
2022-10-13T22:00:00.560Z,38.00
2022-10-13T22:02:33.421Z,37.70
2022-10-13T22:05:06.993Z,41.80
2022-10-13T22:07:40.213Z,42.10
2022-10-13T22:10:13.669Z,43.10
2022-10-13T22:12:46.606Z,41.80
2022-10-13T22:15:19.584Z,41.30
2022-10-13T22:17:52.514Z,48.90
2022-10-13T22:20:25.988Z,45.00
2022-10-13T22:22:58.960Z,51.30
2022-10-13T22:25:31.786Z,38.40
2022-10-13T22:28:04.596Z,40.10
2022-10-13T22:30:40.221Z,42.60
2022-10-13T22:33:15.822Z,43.50
2022-10-13T22:35:50.288Z,46.60
2022-10-13T22:38:25.536Z,46.30
2022-10-13T22:41:04.267Z,45.50
2022-10-13T22:43:38.041Z,47.60
2022-10-13T22:46:23.359Z,47.00
2022-10-13T22:48:57.017Z,53.70
2022-10-13T22:51:33.037Z,44.00
2022-10-13T22:54:07.712Z,38.80
2022-10-13T22:56:43.314Z,41.40
2022-10-13T22:59:16.718Z,45.70
2022-10-13T23:01:49.903Z,43.30
2022-10-13T23:04:22.679Z,45.80
2022-10-13T23:06:55.575Z,43.80
2022-10-13T23:09:28.880Z,42.70
2022-10-13T23:12:02.560Z,43.80
2022-10-13T23:14:36.097Z,41.90
2022-10-13T23:17:09.452Z,46.10
2022-10-13T23:19:42.416Z,46.60
2022-10-13T23:22:15.217Z,44.60
2022-10-13T23:24:48.101Z,37.40
2022-10-13T23:27:21.409Z,42.70
2022-10-13T23:29:55.587Z,32.60
2022-10-13T23:32:31.184Z,37.20
2022-10-13T23:35:04.397Z,35.10
2022-10-13T23:37:38.229Z,42.70
2022-10-13T23:40:14.024Z,41.00
2022-10-13T23:42:46.929Z,44.20
2022-10-13T23:45:20.070Z,40.60
2022-10-13T23:47:52.937Z,46.60
2022-10-13T23:50:26.356Z,53.00
2022-10-13T23:52:59.696Z,43.50
2022-10-13T23:55:32.617Z,38.90
2022-10-13T23:58:05.546Z,49.10
